Adaven, Nevada
Current Conditions -  °F | °C
As of 6:56 PM on Saturday 25 Oct 2014 (Local Time) from KTPH Reporting Station
Clear Clear  
Wind Chill: 61°   Ceiling: Unl
Heat Index: 61°   Visibility: 10mi
Dew Point: 29°   Wind: 14mph
Humidity: 30%   Direction: 190°S
Pressure: 30"   Gusts: NA
Location:  38.13°N, 115.6°W
Report Text: KTPH 260156Z AUTO 19012KT 10SM CLR 16/M02 A3000 RMK AO2 SLP114 T01611017
Loading
Personal Weather Stations






























Interactive Weather Map New forecast layout! Learn more

10-Day Weather Forecast

Advertisements
Track Severe Weather on mobile